Time;durP1;ratioP1;P1;durP2;ratioP2;P2;SDS_P1;SDS_P2;PMS_P1;PMS_P2;Temp;Humidity;BMP_temperature;BMP_pressure;BME280_temperature;BME280_humidity;BME280_pressure;Samples;Min_cycle;Max_cycle;Signal;HPM_P1;HPM_P2
2024/01/11 00:00:09;;;;;;;29.47;17.00;;;;;;;;;;687141;28;1199;-62
2024/01/11 00:00:29;;;;;;;28.63;17.27;;;;;;;;;;686265;28;1743;-60
2024/01/11 00:00:50;;;;;;;31.60;17.47;;;;;;;;;;686832;28;4379;-59
2024/01/11 00:01:10;;;;;;;29.43;16.97;;;;;;;;;;687257;28;941;-60
2024/01/11 00:01:30;;;;;;;28.95;17.30;;;;;;;;;;685845;28;1730;-60
2024/01/11 00:01:50;;;;;;;29.50;17.53;;;;;;;;;;687234;28;1020;-60
2024/01/11 00:02:11;;;;;;;28.00;17.43;;;;;;;;;;686498;28;794;-60
2024/01/11 00:02:31;;;;;;;28.45;17.20;;;;;;;;;;686091;28;2015;-61
2024/01/11 00:02:51;;;;;;;30.70;17.83;;;;;;;;;;687780;28;1153;-60
2024/01/11 00:03:12;;;;;;;29.03;16.97;;;;;;;;;;687370;28;1062;-61
2024/01/11 00:03:32;;;;;;;27.90;17.13;;;;;;;;;;686198;28;1732;-59
2024/01/11 00:03:52;;;;;;;31.27;17.67;;;;;;;;;;682944;28;4342;-59
2024/01/11 00:04:13;;;;;;;29.45;17.65;;;;;;;;;;683880;28;921;-61
2024/01/11 00:04:33;;;;;;;30.13;17.47;;;;;;;;;;683174;28;2424;-59
2024/01/11 00:04:53;;;;;;;29.93;17.50;;;;;;;;;;687711;28;794;-61
2024/01/11 00:05:14;;;;;;;31.20;17.57;;;;;;;;;;682183;28;1261;-60
2024/01/11 00:05:34;;;;;;;28.90;17.83;;;;;;;;;;684712;28;1924;-60
2024/01/11 00:05:54;;;;;;;28.10;17.17;;;;;;;;;;687757;28;825;-61
2024/01/11 00:06:15;;;;;;;29.80;17.57;;;;;;;;;;687334;28;892;-60
2024/01/11 00:06:39;;;;;;;28.08;17.65;;;;;;;;;;685888;28;1801;-61
2024/01/11 00:07:00;;;;;;;29.17;18.20;;;;;;;;;;687688;28;4443;-59
2024/01/11 00:07:21;;;;;;;28.83;17.77;;;;;;;;;;690143;28;871;-60
2024/01/11 00:07:42;;;;;;;28.52;17.92;;;;;;;;;;685973;28;1855;-61
2024/01/11 00:08:03;;;;;;;30.40;18.08;;;;;;;;;;684154;28;814;-60
2024/01/11 00:08:24;;;;;;;31.50;18.20;;;;;;;;;;681809;29;1145;-62
2024/01/11 00:08:44;;;;;;;29.97;17.93;;;;;;;;;;681532;29;826;-60
2024/01/11 00:09:05;;;;;;;29.13;18.13;;;;;;;;;;681690;29;1029;-61
2024/01/11 00:09:25;;;;;;;29.40;18.27;;;;;;;;;;680469;28;1828;-61
2024/01/11 00:09:46;;;;;;;30.20;18.10;;;;;;;;;;681768;28;4583;-62
2024/01/11 00:10:08;;;;;;;30.80;18.40;;;;;;;;;;683947;28;1188;-60
2024/01/11 00:10:29;;;;;;;29.70;18.17;;;;;;;;;;685093;28;1051;-61
2024/01/11 00:10:49;;;;;;;28.88;17.73;;;;;;;;;;686373;28;810;-62
2024/01/11 00:11:10;;;;;;;31.30;18.00;;;;;;;;;;687360;28;929;-60
2024/01/11 00:11:30;;;;;;;32.95;18.23;;;;;;;;;;686085;28;1485;-60
2024/01/11 00:11:51;;;;;;;30.05;17.60;;;;;;;;;;686657;28;1351;-61
2024/01/11 00:12:11;;;;;;;31.53;17.93;;;;;;;;;;687354;28;778;-59
2024/01/11 00:12:31;;;;;;;28.93;17.30;;;;;;;;;;683940;28;1814;-62
2024/01/11 00:12:52;;;;;;;29.95;18.13;;;;;;;;;;684404;28;4559;-60
2024/01/11 00:13:12;;;;;;;28.37;17.53;;;;;;;;;;684389;28;882;-59
2024/01/11 00:13:32;;;;;;;29.90;18.38;;;;;;;;;;683029;28;1938;-60
2024/01/11 00:13:52;;;;;;;29.83;18.20;;;;;;;;;;684644;28;1320;-59
2024/01/11 00:14:13;;;;;;;30.03;17.80;;;;;;;;;;682242;28;1491;-61
2024/01/11 00:14:33;;;;;;;30.27;18.38;;;;;;;;;;682924;28;2549;-61
2024/01/11 00:14:53;;;;;;;28.97;17.30;;;;;;;;;;684561;28;759;-62
2024/01/11 00:15:13;;;;;;;29.27;17.70;;;;;;;;;;684024;28;1976;-60
2024/01/11 00:15:34;;;;;;;27.95;17.50;;;;;;;;;;683548;28;1456;-60
2024/01/11 00:15:54;;;;;;;27.80;17.30;;;;;;;;;;687900;28;4522;-60
2024/01/11 00:16:15;;;;;;;30.75;17.50;;;;;;;;;;689235;28;1401;-63
2024/01/11 00:16:35;;;;;;;31.23;17.53;;;;;;;;;;686503;28;2395;-61
2024/01/11 00:16:55;;;;;;;30.60;17.93;;;;;;;;;;686671;28;1492;-60
2024/01/11 00:17:15;;;;;;;30.85;18.08;;;;;;;;;;686667;28;1491;-61
2024/01/11 00:17:36;;;;;;;30.53;18.10;;;;;;;;;;685827;28;1919;-61
2024/01/11 00:17:56;;;;;;;30.35;18.15;;;;;;;;;;684361;28;995;-60
2024/01/11 00:18:17;;;;;;;30.33;18.40;;;;;;;;;;683780;28;1168;-61
2024/01/11 00:18:37;;;;;;;30.50;18.15;;;;;;;;;;683522;28;2325;-62
2024/01/11 00:18:58;;;;;;;29.37;18.33;;;;;;;;;;685221;28;4884;-61
2024/01/11 00:19:18;;;;;;;29.95;18.25;;;;;;;;;;686487;28;964;-60
2024/01/11 00:19:38;;;;;;;30.97;17.77;;;;;;;;;;686345;28;1726;-60
2024/01/11 00:19:58;;;;;;;28.93;17.50;;;;;;;;;;685988;28;1215;-61
2024/01/11 00:20:18;;;;;;;28.73;17.90;;;;;;;;;;686546;28;3633;-61
2024/01/11 00:20:39;;;;;;;27.87;18.07;;;;;;;;;;685816;28;2024;-61
2024/01/11 00:20:59;;;;;;;28.93;17.57;;;;;;;;;;686907;28;1145;-59
2024/01/11 00:21:19;;;;;;;30.33;18.38;;;;;;;;;;686956;28;889;-60
2024/01/11 00:21:39;;;;;;;29.93;18.30;;;;;;;;;;684935;28;1517;-61
2024/01/11 00:22:00;;;;;;;30.30;17.13;;;;;;;;;;684241;28;4376;-60
2024/01/11 00:22:20;;;;;;;29.03;17.50;;;;;;;;;;684652;28;988;-60
2024/01/11 00:22:40;;;;;;;31.65;18.35;;;;;;;;;;682949;28;2234;-60
2024/01/11 00:23:01;;;;;;;28.60;17.20;;;;;;;;;;684606;28;1404;-62
2024/01/11 00:23:21;;;;;;;29.42;17.40;;;;;;;;;;683255;28;1516;-61
2024/01/11 00:23:41;;;;;;;31.00;18.33;;;;;;;;;;683460;28;1688;-63
2024/01/11 00:24:02;;;;;;;30.75;17.95;;;;;;;;;;681284;28;1689;-60
2024/01/11 00:24:22;;;;;;;30.10;17.60;;;;;;;;;;681848;29;766;-60
2024/01/11 00:24:42;;;;;;;30.58;17.58;;;;;;;;;;680365;28;1993;-62
2024/01/11 00:25:04;;;;;;;30.73;17.87;;;;;;;;;;681568;28;4437;-59
2024/01/11 00:25:24;;;;;;;30.23;17.70;;;;;;;;;;684204;28;976;-60
2024/01/11 00:25:44;;;;;;;31.42;18.45;;;;;;;;;;682693;28;2290;-63
2024/01/11 00:26:05;;;;;;;29.07;18.57;;;;;;;;;;686866;28;881;-59
2024/01/11 00:26:25;;;;;;;31.25;18.42;;;;;;;;;;684827;28;2268;-60
2024/01/11 00:26:45;;;;;;;30.97;18.27;;;;;;;;;;684678;28;984;-59
2024/01/11 00:27:06;;;;;;;29.23;18.50;;;;;;;;;;684817;28;909;-62
2024/01/11 00:27:26;;;;;;;28.88;17.80;;;;;;;;;;682599;28;2685;-60
2024/01/11 00:27:46;;;;;;;29.50;17.60;;;;;;;;;;684420;28;4397;-61
2024/01/11 00:28:06;;;;;;;30.67;18.63;;;;;;;;;;685869;28;1298;-62
2024/01/11 00:28:27;;;;;;;29.55;17.90;;;;;;;;;;685920;28;2396;-62
2024/01/11 00:28:47;;;;;;;29.93;18.33;;;;;;;;;;686929;28;1385;-60
2024/01/11 00:29:07;;;;;;;28.83;18.07;;;;;;;;;;687176;28;1318;-60
2024/01/11 00:29:28;;;;;;;31.65;18.45;;;;;;;;;;685035;28;1448;-61
2024/01/11 00:29:48;;;;;;;30.35;17.75;;;;;;;;;;684370;28;1060;-60
2024/01/11 00:30:09;;;;;;;30.20;17.57;;;;;;;;;;684276;28;822;-61
2024/01/11 00:30:29;;;;;;;30.53;17.87;;;;;;;;;;683434;28;1839;-63
2024/01/11 00:30:49;;;;;;;29.57;17.80;;;;;;;;;;686232;28;4434;-62
2024/01/11 00:31:10;;;;;;;30.00;17.67;;;;;;;;;;683522;28;1117;-60
2024/01/11 00:31:30;;;;;;;30.60;17.85;;;;;;;;;;680117;28;1493;-61
2024/01/11 00:31:50;;;;;;;29.83;17.53;;;;;;;;;;684811;28;948;-60
2024/01/11 00:32:11;;;;;;;31.48;17.88;;;;;;;;;;684968;28;892;-60
2024/01/11 00:32:31;;;;;;;31.77;18.10;;;;;;;;;;682852;28;1462;-60
2024/01/11 00:32:51;;;;;;;28.97;17.57;;;;;;;;;;684014;28;1211;-60
2024/01/11 00:33:12;;;;;;;27.15;17.33;;;;;;;;;;684598;28;759;-60
2024/01/11 00:33:32;;;;;;;28.77;17.23;;;;;;;;;;683143;28;2430;-61
2024/01/11 00:33:52;;;;;;;28.17;17.33;;;;;;;;;;683697;28;4293;-61
2024/01/11 00:34:12;;;;;;;29.93;17.90;;;;;;;;;;682949;28;1193;-60
2024/01/11 00:34:33;;;;;;;30.83;18.40;;;;;;;;;;683162;28;1330;-61
2024/01/11 00:34:53;;;;;;;30.83;18.00;;;;;;;;;;684454;28;913;-59
2024/01/11 00:35:13;;;;;;;30.67;17.63;;;;;;;;;;684530;28;968;-62
2024/01/11 00:35:34;;;;;;;29.00;17.63;;;;;;;;;;683008;28;1317;-62
2024/01/11 00:35:54;;;;;;;29.52;18.02;;;;;;;;;;683725;28;1284;-64
2024/01/11 00:36:19;;;;;;;31.30;17.83;;;;;;;;;;684629;28;932;-61
2024/01/11 00:36:39;;;;;;;30.60;18.40;;;;;;;;;;682491;28;1023;-60
2024/01/11 00:36:59;;;;;;;29.40;18.57;;;;;;;;;;679670;28;4395;-61
2024/01/11 00:37:19;;;;;;;29.55;17.55;;;;;;;;;;682709;28;840;-60
2024/01/11 00:37:40;;;;;;;29.60;17.70;;;;;;;;;;683478;28;1253;-60
2024/01/11 00:38:01;;;;;;;30.30;18.50;;;;;;;;;;686583;28;856;-61
2024/01/11 00:38:21;;;;;;;29.27;18.30;;;;;;;;;;687015;28;956;-61
2024/01/11 00:38:41;;;;;;;28.75;17.70;;;;;;;;;;686100;28;940;-60
2024/01/11 00:39:02;;;;;;;28.90;17.63;;;;;;;;;;689045;28;5216;-60
2024/01/11 00:39:22;;;;;;;31.50;18.10;;;;;;;;;;683235;28;1283;-61
2024/01/11 00:39:43;;;;;;;31.00;17.90;;;;;;;;;;683378;28;983;-60
2024/01/11 00:40:04;;;;;;;28.88;17.92;;;;;;;;;;683849;28;4496;-61
2024/01/11 00:40:25;;;;;;;30.65;19.00;;;;;;;;;;684810;28;841;-61
2024/01/11 00:40:45;;;;;;;29.17;18.00;;;;;;;;;;683170;28;1914;-60
2024/01/11 00:41:06;;;;;;;30.33;18.10;;;;;;;;;;684391;28;948;-60
2024/01/11 00:41:26;;;;;;;29.08;17.70;;;;;;;;;;683300;28;1021;-62
2024/01/11 00:41:46;;;;;;;28.97;17.93;;;;;;;;;;684741;28;770;-62
2024/01/11 00:42:07;;;;;;;30.90;18.13;;;;;;;;;;684114;28;963;-61
2024/01/11 00:42:27;;;;;;;30.63;18.40;;;;;;;;;;683499;28;1358;-60
2024/01/11 00:42:47;;;;;;;31.60;18.13;;;;;;;;;;684191;28;4267;-60
2024/01/11 00:43:07;;;;;;;30.53;17.90;;;;;;;;;;686687;28;865;-60
2024/01/11 00:43:27;;;;;;;32.17;18.77;;;;;;;;;;686067;28;998;-60
2024/01/11 00:43:48;;;;;;;31.23;18.77;;;;;;;;;;687421;28;757;-60
2024/01/11 00:44:08;;;;;;;29.80;17.70;;;;;;;;;;686236;28;1385;-61
2024/01/11 00:44:28;;;;;;;32.63;18.40;;;;;;;;;;684602;28;1051;-61
2024/01/11 00:44:49;;;;;;;31.97;18.30;;;;;;;;;;687129;28;1058;-61
2024/01/11 00:45:09;;;;;;;33.30;18.90;;;;;;;;;;687199;28;805;-64
2024/01/11 00:45:29;;;;;;;31.77;18.40;;;;;;;;;;686217;28;1059;-60
2024/01/11 00:45:50;;;;;;;33.23;18.57;;;;;;;;;;686105;28;4411;-60
2024/01/11 00:46:10;;;;;;;33.10;18.23;;;;;;;;;;683417;28;1472;-62
2024/01/11 00:46:31;;;;;;;30.38;18.13;;;;;;;;;;683275;28;1051;-60
2024/01/11 00:46:51;;;;;;;29.67;18.07;;;;;;;;;;684437;28;2442;-60
2024/01/11 00:47:11;;;;;;;30.98;18.17;;;;;;;;;;684599;28;789;-63
2024/01/11 00:47:31;;;;;;;32.73;18.73;;;;;;;;;;683402;28;1215;-62
2024/01/11 00:47:52;;;;;;;33.43;18.57;;;;;;;;;;684564;28;1232;-62
2024/01/11 00:48:12;;;;;;;34.45;18.52;;;;;;;;;;683914;28;929;-61
2024/01/11 00:48:32;;;;;;;32.10;18.33;;;;;;;;;;683347;28;1015;-60
2024/01/11 00:48:53;;;;;;;30.17;17.80;;;;;;;;;;683945;28;4722;-60
2024/01/11 00:49:13;;;;;;;33.05;18.52;;;;;;;;;;684738;28;1369;-60
2024/01/11 00:49:33;;;;;;;35.20;19.37;;;;;;;;;;683049;28;992;-60
2024/01/11 00:49:53;;;;;;;32.07;18.70;;;;;;;;;;684765;28;1004;-60
2024/01/11 00:50:14;;;;;;;33.05;18.80;;;;;;;;;;684350;28;940;-60
2024/01/11 00:50:34;;;;;;;31.27;18.23;;;;;;;;;;683368;28;977;-60
2024/01/11 00:50:54;;;;;;;30.13;18.20;;;;;;;;;;683480;28;1326;-61
2024/01/11 00:51:15;;;;;;;29.83;18.83;;;;;;;;;;684837;28;960;-61
2024/01/11 00:51:35;;;;;;;31.48;18.55;;;;;;;;;;683104;28;1502;-61
2024/01/11 00:51:55;;;;;;;30.27;17.93;;;;;;;;;;682587;28;4622;-63
2024/01/11 00:52:16;;;;;;;31.73;18.10;;;;;;;;;;684399;28;979;-62
2024/01/11 00:52:38;;;;;;;33.00;18.33;;;;;;;;;;682813;28;1433;-61
2024/01/11 00:52:58;;;;;;;29.98;18.17;;;;;;;;;;684369;28;1008;-61
2024/01/11 00:53:18;;;;;;;33.37;18.93;;;;;;;;;;684709;28;1190;-62
2024/01/11 00:53:38;;;;;;;31.10;18.15;;;;;;;;;;685700;28;1197;-60
2024/01/11 00:53:59;;;;;;;30.37;17.83;;;;;;;;;;686848;28;1540;-60
2024/01/11 00:54:19;;;;;;;30.60;18.40;;;;;;;;;;686903;28;826;-60
2024/01/11 00:54:40;;;;;;;28.63;17.50;;;;;;;;;;685397;28;919;-61
2024/01/11 00:55:01;;;;;;;29.70;17.45;;;;;;;;;;686445;28;4385;-63
2024/01/11 00:55:21;;;;;;;30.47;18.33;;;;;;;;;;687233;28;968;-61
2024/01/11 00:55:41;;;;;;;30.23;18.70;;;;;;;;;;684540;28;1179;-61
2024/01/11 00:56:01;;;;;;;29.27;18.30;;;;;;;;;;688208;28;829;-60
2024/01/11 00:56:22;;;;;;;31.17;18.47;;;;;;;;;;689639;28;877;-62
2024/01/11 00:56:42;;;;;;;29.88;17.80;;;;;;;;;;685718;28;1216;-61
2024/01/11 00:57:02;;;;;;;30.10;17.80;;;;;;;;;;688993;28;809;-61
2024/01/11 00:57:23;;;;;;;29.67;17.92;;;;;;;;;;688592;28;1518;-60
2024/01/11 00:57:43;;;;;;;29.57;17.33;;;;;;;;;;688713;28;1112;-61
2024/01/11 00:58:03;;;;;;;30.73;18.33;;;;;;;;;;686209;28;4736;-61
2024/01/11 00:58:23;;;;;;;30.55;18.48;;;;;;;;;;687090;28;1314;-60
2024/01/11 00:58:44;;;;;;;29.63;18.30;;;;;;;;;;685436;28;1157;-61
2024/01/11 00:59:04;;;;;;;31.60;18.00;;;;;;;;;;686784;28;1670;-62
2024/01/11 00:59:24;;;;;;;30.67;17.80;;;;;;;;;;685834;28;826;-61
2024/01/11 00:59:44;;;;;;;31.33;18.27;;;;;;;;;;686010;28;1184;-61
2024/01/11 01:00:05;;;;;;;30.73;18.10;;;;;;;;;;686651;28;1074;-61
2024/01/11 01:00:25;;;;;;;31.05;18.55;;;;;;;;;;686911;28;1287;-62
2024/01/11 01:00:46;;;;;;;30.80;18.50;;;;;;;;;;685375;28;1910;-61
2024/01/11 01:01:08;;;;;;;30.60;17.92;;;;;;;;;;687587;28;4781;-60
2024/01/11 01:01:28;;;;;;;31.05;17.92;;;;;;;;;;683910;28;1041;-61
2024/01/11 01:01:49;;;;;;;31.42;17.83;;;;;;;;;;685304;28;909;-60
2024/01/11 01:02:10;;;;;;;30.27;17.73;;;;;;;;;;684704;28;1307;-61
2024/01/11 01:02:30;;;;;;;30.87;17.67;;;;;;;;;;684448;28;1016;-61
2024/01/11 01:02:50;;;;;;;32.00;17.85;;;;;;;;;;685002;28;929;-59
2024/01/11 01:03:11;;;;;;;31.57;18.17;;;;;;;;;;685001;28;901;-61
2024/01/11 01:03:31;;;;;;;30.63;18.13;;;;;;;;;;683712;28;1051;-60
2024/01/11 01:03:51;;;;;;;30.20;17.58;;;;;;;;;;684263;28;5257;-59
2024/01/11 01:04:11;;;;;;;32.00;17.63;;;;;;;;;;684675;28;981;-61
2024/01/11 01:04:32;;;;;;;32.00;18.03;;;;;;;;;;684213;28;986;-60
2024/01/11 01:04:52;;;;;;;30.73;18.20;;;;;;;;;;684510;28;980;-61
2024/01/11 01:05:12;;;;;;;30.50;18.20;;;;;;;;;;684507;28;1223;-60
2024/01/11 01:05:32;;;;;;;29.30;17.97;;;;;;;;;;684204;28;958;-59
2024/01/11 01:05:53;;;;;;;30.30;17.77;;;;;;;;;;684962;28;841;-60
2024/01/11 01:06:13;;;;;;;31.25;17.73;;;;;;;;;;684651;28;919;-60
2024/01/11 01:06:33;;;;;;;31.60;17.83;;;;;;;;;;684120;28;955;-62
2024/01/11 01:06:53;;;;;;;30.27;17.70;;;;;;;;;;683012;28;4461;-63
2024/01/11 01:07:14;;;;;;;28.07;17.97;;;;;;;;;;684092;28;794;-62
2024/01/11 01:07:34;;;;;;;26.87;17.53;;;;;;;;;;683813;28;911;-62
2024/01/11 01:07:54;;;;;;;27.63;17.60;;;;;;;;;;685133;28;989;-60
2024/01/11 01:08:14;;;;;;;30.85;18.77;;;;;;;;;;685195;28;1393;-62
2024/01/11 01:08:35;;;;;;;31.57;18.80;;;;;;;;;;683743;28;1350;-60
2024/01/11 01:08:55;;;;;;;32.08;18.13;;;;;;;;;;684952;28;929;-60
2024/01/11 01:09:15;;;;;;;29.60;17.93;;;;;;;;;;684596;28;845;-60
2024/01/11 01:09:35;;;;;;;29.97;18.00;;;;;;;;;;686388;28;1164;-63
2024/01/11 01:09:56;;;;;;;28.30;18.35;;;;;;;;;;688469;28;4428;-60
2024/01/11 01:10:16;;;;;;;27.87;18.43;;;;;;;;;;690161;28;1457;-60
2024/01/11 01:10:36;;;;;;;32.67;18.80;;;;;;;;;;688972;28;1062;-60
2024/01/11 01:10:57;;;;;;;34.37;19.40;;;;;;;;;;690226;28;806;-63
2024/01/11 01:11:17;;;;;;;31.93;18.80;;;;;;;;;;690044;28;1172;-60
2024/01/11 01:11:37;;;;;;;31.75;18.90;;;;;;;;;;688932;28;1191;-60
2024/01/11 01:11:58;;;;;;;29.03;18.90;;;;;;;;;;684078;28;1436;-61
2024/01/11 01:12:18;;;;;;;31.65;19.23;;;;;;;;;;682782;28;968;-59
2024/01/11 01:12:38;;;;;;;30.40;18.47;;;;;;;;;;681797;28;1295;-61
2024/01/11 01:12:59;;;;;;;30.90;19.00;;;;;;;;;;683021;28;4425;-61
2024/01/11 01:13:19;;;;;;;31.13;18.30;;;;;;;;;;682963;28;1370;-61
2024/01/11 01:13:39;;;;;;;30.30;18.33;;;;;;;;;;684106;28;1049;-61
2024/01/11 01:13:59;;;;;;;28.57;18.20;;;;;;;;;;690188;28;1000;-60
2024/01/11 01:14:20;;;;;;;29.85;18.08;;;;;;;;;;690379;28;834;-60
2024/01/11 01:14:40;;;;;;;29.93;18.07;;;;;;;;;;683562;28;976;-58
2024/01/11 01:15:00;;;;;;;33.43;19.00;;;;;;;;;;685172;28;1358;-59
2024/01/11 01:15:21;;;;;;;30.42;18.90;;;;;;;;;;684737;28;1103;-59
2024/01/11 01:15:41;;;;;;;32.43;19.17;;;;;;;;;;683634;28;1039;-63
2024/01/11 01:16:01;;;;;;;31.73;18.27;;;;;;;;;;684474;28;4336;-61
2024/01/11 01:16:21;;;;;;;31.20;18.10;;;;;;;;;;687819;28;905;-60
2024/01/11 01:16:41;;;;;;;34.50;19.33;;;;;;;;;;685703;28;3487;-61
2024/01/11 01:17:02;;;;;;;35.63;19.63;;;;;;;;;;684115;28;1277;-60
2024/01/11 01:17:22;;;;;;;35.15;19.33;;;;;;;;;;679616;29;893;-60
2024/01/11 01:17:42;;;;;;;34.40;19.83;;;;;;;;;;680603;29;1623;-64
2024/01/11 01:18:03;;;;;;;32.40;19.13;;;;;;;;;;680956;29;1372;-61
2024/01/11 01:18:23;;;;;;;32.67;19.27;;;;;;;;;;682320;29;992;-62
2024/01/11 01:18:44;;;;;;;33.97;19.70;;;;;;;;;;680214;28;1170;-60
2024/01/11 01:19:04;;;;;;;35.10;19.27;;;;;;;;;;686705;28;4684;-61
2024/01/11 01:19:24;;;;;;;33.70;19.07;;;;;;;;;;687062;28;1544;-60
2024/01/11 01:19:44;;;;;;;35.07;20.03;;;;;;;;;;689042;28;1717;-60
2024/01/11 01:20:05;;;;;;;33.50;19.03;;;;;;;;;;689891;28;866;-61
2024/01/11 01:20:25;;;;;;;32.17;18.77;;;;;;;;;;690180;28;1282;-60
2024/01/11 01:20:45;;;;;;;33.43;19.57;;;;;;;;;;691318;28;1969;-61
2024/01/11 01:21:06;;;;;;;33.17;19.57;;;;;;;;;;690216;28;955;-60
2024/01/11 01:21:27;;;;;;;34.08;19.02;;;;;;;;;;687274;28;1420;-60
2024/01/11 01:21:48;;;;;;;35.16;19.26;;;;;;;;;;686571;28;4424;-61
2024/01/11 01:22:08;;;;;;;32.53;18.73;;;;;;;;;;687533;28;1663;-61
2024/01/11 01:22:29;;;;;;;32.17;18.43;;;;;;;;;;686530;28;1594;-60
2024/01/11 01:22:49;;;;;;;35.25;18.38;;;;;;;;;;685878;28;1503;-61
2024/01/11 01:23:09;;;;;;;32.90;18.73;;;;;;;;;;683587;28;1506;-60
2024/01/11 01:23:29;;;;;;;31.23;18.20;;;;;;;;;;681908;28;1178;-61
2024/01/11 01:23:50;;;;;;;33.00;18.80;;;;;;;;;;683617;28;1439;-61
2024/01/11 01:24:10;;;;;;;36.47;19.33;;;;;;;;;;683427;28;837;-61
2024/01/11 01:24:31;;;;;;;34.42;18.85;;;;;;;;;;682105;28;1971;-60
2024/01/11 01:24:51;;;;;;;34.47;19.70;;;;;;;;;;686450;28;4405;-60
2024/01/11 01:25:11;;;;;;;35.15;20.45;;;;;;;;;;687303;28;877;-61
2024/01/11 01:25:34;;;;;;;36.33;19.77;;;;;;;;;;685640;28;2228;-61
2024/01/11 01:25:54;;;;;;;35.38;19.65;;;;;;;;;;686372;28;1103;-61
2024/01/11 01:26:15;;;;;;;37.60;20.15;;;;;;;;;;687270;28;1270;-60
2024/01/11 01:26:35;;;;;;;35.97;19.53;;;;;;;;;;686598;28;1050;-62
2024/01/11 01:26:55;;;;;;;35.70;19.13;;;;;;;;;;686999;28;813;-63
2024/01/11 01:27:16;;;;;;;35.80;19.58;;;;;;;;;;685937;28;1039;-61
2024/01/11 01:27:36;;;;;;;33.83;19.57;;;;;;;;;;684046;28;1873;-60
2024/01/11 01:27:58;;;;;;;31.97;19.53;;;;;;;;;;685776;28;4573;-60
2024/01/11 01:28:19;;;;;;;31.05;19.25;;;;;;;;;;687212;28;1055;-61
2024/01/11 01:28:40;;;;;;;32.13;18.47;;;;;;;;;;686541;28;2391;-60
2024/01/11 01:29:00;;;;;;;31.10;18.55;;;;;;;;;;687989;28;1330;-61
2024/01/11 01:29:20;;;;;;;32.08;18.92;;;;;;;;;;687034;28;921;-63
2024/01/11 01:29:41;;;;;;;35.10;19.57;;;;;;;;;;686192;28;1893;-61
2024/01/11 01:30:01;;;;;;;33.45;18.92;;;;;;;;;;687720;28;794;-61
2024/01/11 01:30:23;;;;;;;34.13;19.23;;;;;;;;;;685157;28;873;-61
2024/01/11 01:30:43;;;;;;;34.47;19.02;;;;;;;;;;688270;28;1136;-62
2024/01/11 01:31:03;;;;;;;35.27;19.30;;;;;;;;;;689587;28;4322;-63
2024/01/11 01:31:23;;;;;;;37.83;19.40;;;;;;;;;;689428;28;880;-63
2024/01/11 01:31:44;;;;;;;35.67;19.35;;;;;;;;;;688831;28;1799;-60
2024/01/11 01:32:04;;;;;;;33.13;19.23;;;;;;;;;;687201;28;1682;-60
2024/01/11 01:32:24;;;;;;;31.27;18.83;;;;;;;;;;687238;28;1162;-62
2024/01/11 01:32:45;;;;;;;33.33;18.83;;;;;;;;;;685995;28;2845;-61
2024/01/11 01:33:05;;;;;;;32.03;17.83;;;;;;;;;;687842;28;809;-61
2024/01/11 01:33:25;;;;;;;33.40;18.70;;;;;;;;;;687527;28;1012;-61
2024/01/11 01:33:45;;;;;;;35.10;19.30;;;;;;;;;;686251;28;1814;-61
2024/01/11 01:34:06;;;;;;;32.77;18.90;;;;;;;;;;683971;28;4297;-61
2024/01/11 01:34:27;;;;;;;31.85;18.52;;;;;;;;;;684165;28;1422;-62
2024/01/11 01:34:47;;;;;;;30.17;17.97;;;;;;;;;;683554;28;1773;-60
2024/01/11 01:35:07;;;;;;;29.83;17.87;;;;;;;;;;685081;28;913;-62
2024/01/11 01:35:28;;;;;;;32.53;18.77;;;;;;;;;;684672;28;1355;-60
2024/01/11 01:35:48;;;;;;;34.67;18.87;;;;;;;;;;685059;28;2362;-61
2024/01/11 01:36:12;;;;;;;32.53;18.40;;;;;;;;;;686158;28;1523;-59
2024/01/11 01:36:32;;;;;;;33.05;17.95;;;;;;;;;;688982;28;1722;-60
2024/01/11 01:36:52;;;;;;;33.93;18.20;;;;;;;;;;689286;28;4269;-60
2024/01/11 01:37:12;;;;;;;30.45;18.73;;;;;;;;;;690274;28;1454;-60
2024/01/11 01:37:33;;;;;;;29.60;17.97;;;;;;;;;;688229;28;2443;-61
2024/01/11 01:37:53;;;;;;;32.80;18.80;;;;;;;;;;689005;28;881;-60
2024/01/11 01:38:13;;;;;;;30.80;17.98;;;;;;;;;;689946;28;952;-59
2024/01/11 01:38:33;;;;;;;31.20;18.00;;;;;;;;;;686885;28;1881;-62
2024/01/11 01:38:54;;;;;;;31.87;18.83;;;;;;;;;;687647;28;1232;-61
2024/01/11 01:39:14;;;;;;;33.00;18.55;;;;;;;;;;687088;28;5328;-59
2024/01/11 01:39:37;;;;;;;32.83;18.13;;;;;;;;;;686384;28;2321;-61
2024/01/11 01:39:57;;;;;;;32.40;18.20;;;;;;;;;;686388;28;4490;-60
2024/01/11 01:40:17;;;;;;;32.00;18.40;;;;;;;;;;683539;28;1507;-61
2024/01/11 01:40:37;;;;;;;33.53;18.63;;;;;;;;;;678920;28;2411;-60
2024/01/11 01:40:58;;;;;;;34.17;18.63;;;;;;;;;;679518;28;1914;-61
2024/01/11 01:41:18;;;;;;;32.93;18.67;;;;;;;;;;680919;29;906;-61
2024/01/11 01:41:38;;;;;;;31.67;17.75;;;;;;;;;;679697;29;1102;-61
2024/01/11 01:41:58;;;;;;;33.10;18.03;;;;;;;;;;677223;29;980;-60
2024/01/11 01:42:19;;;;;;;34.30;18.80;;;;;;;;;;681734;29;1350;-61
2024/01/11 01:42:46;;;;;;;33.33;18.27;;;;;;;;;;683585;28;1481;-62
2024/01/11 01:43:09;;;;;;;31.92;18.40;;;;;;;;;;688507;28;4981;-61
2024/01/11 01:43:29;;;;;;;32.22;18.20;;;;;;;;;;689760;28;995;-60
2024/01/11 01:43:49;;;;;;;30.30;18.47;;;;;;;;;;687638;28;1786;-60
2024/01/11 01:44:09;;;;;;;34.80;19.23;;;;;;;;;;688215;28;1315;-61
2024/01/11 01:44:30;;;;;;;33.70;18.05;;;;;;;;;;688408;28;845;-62
2024/01/11 01:44:50;;;;;;;29.87;17.80;;;;;;;;;;687392;28;1136;-61
2024/01/11 01:45:10;;;;;;;30.80;17.87;;;;;;;;;;687968;28;905;-61
2024/01/11 01:45:30;;;;;;;31.45;18.00;;;;;;;;;;686302;28;1735;-62
2024/01/11 01:45:51;;;;;;;31.93;17.93;;;;;;;;;;687351;28;4477;-60
2024/01/11 01:46:14;;;;;;;32.47;18.67;;;;;;;;;;687490;28;1044;-60
2024/01/11 01:46:35;;;;;;;30.25;18.15;;;;;;;;;;688583;28;2101;-60
2024/01/11 01:46:55;;;;;;;31.15;17.90;;;;;;;;;;687412;28;911;-62
2024/01/11 01:47:16;;;;;;;31.13;18.20;;;;;;;;;;687144;28;1184;-61
2024/01/11 01:47:37;;;;;;;31.55;18.52;;;;;;;;;;686444;28;1889;-61
2024/01/11 01:47:58;;;;;;;29.33;17.17;;;;;;;;;;684647;28;1355;-61
2024/01/11 01:48:18;;;;;;;31.13;17.83;;;;;;;;;;684730;28;1004;-61
2024/01/11 01:48:38;;;;;;;31.70;18.10;;;;;;;;;;684017;28;1795;-60
2024/01/11 01:48:59;;;;;;;31.57;18.03;;;;;;;;;;686972;28;4566;-59
2024/01/11 01:49:22;;;;;;;31.20;18.93;;;;;;;;;;686483;28;917;-62
2024/01/11 01:49:42;;;;;;;30.60;17.63;;;;;;;;;;686586;28;2333;-60
2024/01/11 01:50:03;;;;;;;31.45;17.85;;;;;;;;;;687918;28;1039;-61
2024/01/11 01:50:24;;;;;;;28.27;17.38;;;;;;;;;;687306;28;1329;-61
2024/01/11 01:50:50;;;;;;;29.88;18.23;;;;;;;;;;686046;28;1673;-59
2024/01/11 01:51:10;;;;;;;31.80;18.85;;;;;;;;;;685793;28;779;-60
2024/01/11 01:51:31;;;;;;;31.90;18.07;;;;;;;;;;686779;28;2182;-63
2024/01/11 01:51:53;;;;;;;32.75;18.25;;;;;;;;;;687716;28;4532;-60
2024/01/11 01:52:14;;;;;;;32.38;18.65;;;;;;;;;;686504;28;810;-60
2024/01/11 01:52:34;;;;;;;29.05;18.10;;;;;;;;;;683904;28;2184;-62
2024/01/11 01:52:55;;;;;;;29.73;18.35;;;;;;;;;;685004;28;944;-59
2024/01/11 01:53:17;;;;;;;32.67;17.77;;;;;;;;;;685055;28;1307;-61
2024/01/11 01:53:38;;;;;;;29.85;17.20;;;;;;;;;;683300;28;2439;-59
2024/01/11 01:53:59;;;;;;;30.67;17.47;;;;;;;;;;685103;28;975;-60
2024/01/11 01:54:20;;;;;;;29.95;17.52;;;;;;;;;;685066;28;924;-59
2024/01/11 01:54:40;;;;;;;30.35;17.88;;;;;;;;;;683409;28;1434;-61
2024/01/11 01:55:02;;;;;;;30.93;17.50;;;;;;;;;;685695;28;4501;-60
2024/01/11 01:55:22;;;;;;;29.48;17.75;;;;;;;;;;687467;28;1193;-60
2024/01/11 01:55:42;;;;;;;30.57;17.80;;;;;;;;;;686309;28;1689;-59
2024/01/11 01:56:03;;;;;;;32.35;17.40;;;;;;;;;;687776;28;813;-60
2024/01/11 01:56:24;;;;;;;34.33;18.13;;;;;;;;;;687646;28;789;-59
2024/01/11 01:56:44;;;;;;;32.23;18.23;;;;;;;;;;685657;28;2599;-61
2024/01/11 01:57:05;;;;;;;31.23;18.00;;;;;;;;;;687497;28;895;-60
2024/01/11 01:57:26;;;;;;;32.38;17.88;;;;;;;;;;687734;28;976;-59
2024/01/11 01:57:47;;;;;;;30.37;17.17;;;;;;;;;;687026;28;4452;-61
2024/01/11 01:58:07;;;;;;;29.42;17.73;;;;;;;;;;687461;28;1282;-60
2024/01/11 01:58:27;;;;;;;30.42;17.67;;;;;;;;;;687260;28;1160;-59
2024/01/11 01:58:48;;;;;;;29.83;17.37;;;;;;;;;;686108;28;1782;-62
2024/01/11 01:59:10;;;;;;;28.88;16.90;;;;;;;;;;687149;28;932;-61
2024/01/11 01:59:31;;;;;;;29.83;17.98;;;;;;;;;;684715;28;957;-61
2024/01/11 01:59:52;;;;;;;29.85;17.08;;;;;;;;;;683806;28;1810;-61
2024/01/11 02:00:13;;;;;;;29.20;17.08;;;;;;;;;;687153;28;1449;-60
2024/01/11 02:00:34;;;;;;;30.33;17.23;;;;;;;;;;684905;28;966;-60
2024/01/11 02:00:54;;;;;;;30.73;17.77;;;;;;;;;;686617;28;4529;-62
2024/01/11 02:01:15;;;;;;;29.23;17.65;;;;;;;;;;686979;28;857;-63
2024/01/11 02:01:35;;;;;;;28.57;18.30;;;;;;;;;;686228;28;1775;-60
2024/01/11 02:01:55;;;;;;;28.83;17.57;;;;;;;;;;686848;28;1320;-61
2024/01/11 02:02:16;;;;;;;30.42;17.52;;;;;;;;;;687519;28;925;-61
2024/01/11 02:02:37;;;;;;;30.45;18.00;;;;;;;;;;686087;28;2380;-61
2024/01/11 02:02:58;;;;;;;30.85;18.50;;;;;;;;;;684817;28;888;-62
2024/01/11 02:03:18;;;;;;;30.15;18.23;;;;;;;;;;684222;28;1285;-60
2024/01/11 02:03:39;;;;;;;31.73;18.53;;;;;;;;;;684189;28;1812;-60